Time;durP1;ratioP1;P1;durP2;ratioP2;P2;SDS_P1;SDS_P2;PMS_P1;PMS_P2;Temp;Humidity;BMP_temperature;BMP_pressure;BME280_temperature;BME280_humidity;BME280_pressure;Samples;Min_cycle;Max_cycle;Signal;HPM_P1;HPM_P2
2023/04/07 04:30:09;;;;;;;11.63;4.38;;;8.70;77.00;;;;;;6071180;23;20055;-84
2023/04/07 04:32:34;;;;;;;8.80;3.55;;;8.70;76.70;;;;;;4970666;28;20118;-84
2023/04/07 04:35:00;;;;;;;6.65;3.72;;;8.70;76.70;;;;;;4975194;28;20027;-85
2023/04/07 04:37:26;;;;;;;6.90;3.75;;;8.70;77.20;;;;;;4958682;28;20034;-85
2023/04/07 04:39:52;;;;;;;12.45;3.97;;;8.80;77.00;;;;;;4958772;28;20037;-85
2023/04/07 04:42:17;;;;;;;7.28;3.38;;;8.70;77.10;;;;;;4972231;28;20032;-85
2023/04/07 04:44:43;;;;;;;7.53;3.50;;;8.70;77.70;;;;;;4957048;29;20023;-85
2023/04/07 04:47:09;;;;;;;5.13;2.95;;;8.70;77.70;;;;;;4946806;29;20042;-84
2023/04/07 04:49:34;;;;;;;4.70;3.05;;;8.70;77.80;;;;;;4956649;29;20031;-83
2023/04/07 04:52:00;;;;;;;5.35;3.35;;;8.60;78.10;;;;;;4948984;29;20034;-84
2023/04/07 05:01:01;;;;;;;2.90;2.33;;;8.60;78.70;;;;;;4956450;28;20470;-83
2023/04/07 05:03:42;;;;;;;3.45;2.55;;;8.70;78.30;;;;;;4956151;28;20027;-86
2023/04/07 05:06:46;;;;;;;4.25;3.22;;;8.70;78.30;;;;;;4975985;28;20487;-87
2023/04/07 05:09:34;;;;;;;4.25;2.80;;;8.70;78.20;;;;;;4957360;29;20023;-86
2023/04/07 05:12:14;;;;;;;4.43;3.10;;;8.70;77.80;;;;;;4968143;28;20039;-86
2023/04/07 05:14:45;;;;;;;4.05;2.70;;;8.70;78.10;;;;;;4965480;28;20026;-85
2023/04/07 05:17:13;;;;;;;4.65;3.00;;;8.80;78.00;;;;;;4976109;28;20077;-85
2023/04/07 05:19:45;;;;;;;4.72;2.95;;;8.80;78.20;;;;;;4958576;28;20023;-86
2023/04/07 05:28:58;;;;;;;6.22;3.63;;;8.80;77.70;;;;;;4871356;29;20048;-86
2023/04/07 05:31:24;;;;;;;5.03;3.58;;;8.70;77.80;;;;;;4865297;29;20106;-80
2023/04/07 05:33:50;;;;;;;6.53;4.38;;;8.70;77.90;;;;;;4958967;29;20031;-79
2023/04/07 05:36:15;;;;;;;6.97;4.72;;;8.80;77.60;;;;;;4950992;29;20239;-79
2023/04/07 05:38:41;;;;;;;5.90;4.05;;;8.70;77.50;;;;;;4954019;29;20035;-83
2023/04/07 05:41:06;;;;;;;4.63;3.38;;;8.80;77.50;;;;;;4943762;29;20098;-84
2023/04/07 05:43:32;;;;;;;6.28;3.20;;;8.80;77.10;;;;;;4958549;29;20043;-84
2023/04/07 05:45:58;;;;;;;3.90;3.03;;;8.70;77.00;;;;;;4959529;29;20038;-84
2023/04/07 05:48:23;;;;;;;7.32;3.20;;;8.70;77.10;;;;;;4941632;29;20027;-84
2023/04/07 05:50:50;;;;;;;3.78;2.75;;;8.70;77.20;;;;;;4958485;29;20035;-84
2023/04/07 05:53:15;;;;;;;4.07;3.15;;;8.60;77.10;;;;;;4960435;29;20042;-84
2023/04/07 05:55:42;;;;;;;6.80;3.40;;;8.50;77.50;;;;;;4929446;29;20032;-84
2023/04/07 05:58:08;;;;;;;6.70;3.30;;;8.60;77.30;;;;;;4924123;29;20118;-84
2023/04/07 06:00:33;;;;;;;6.50;3.42;;;8.60;77.00;;;;;;4923807;29;20071;-84
2023/04/07 06:03:00;;;;;;;5.00;3.03;;;8.60;76.80;;;;;;4927779;29;20027;-84
2023/04/07 06:05:26;;;;;;;4.65;3.10;;;8.60;76.60;;;;;;4924759;29;20042;-84
2023/04/07 06:07:53;;;;;;;3.35;2.53;;;8.50;76.90;;;;;;4923721;29;20024;-84
2023/04/07 06:10:19;;;;;;;6.32;2.72;;;8.60;77.00;;;;;;4938812;29;20034;-84
2023/04/07 06:12:44;;;;;;;2.97;2.53;;;8.60;76.80;;;;;;4942886;29;20122;-84
2023/04/07 06:15:10;;;;;;;3.22;2.33;;;8.70;76.80;;;;;;4959501;29;20035;-84
2023/04/07 06:17:36;;;;;;;4.63;2.63;;;8.70;76.30;;;;;;4942405;29;20037;-84
2023/04/07 06:20:02;;;;;;;2.75;2.00;;;8.70;76.00;;;;;;4959479;29;20114;-84
2023/04/07 06:22:27;;;;;;;3.30;2.28;;;8.80;75.60;;;;;;4941767;29;20117;-84
2023/04/07 06:24:53;;;;;;;5.30;3.10;;;8.70;75.50;;;;;;4941509;29;20060;-84
2023/04/07 06:27:20;;;;;;;4.20;2.63;;;8.70;75.20;;;;;;4957763;29;20102;-85
2023/04/07 06:29:46;;;;;;;2.33;2.13;;;8.80;75.20;;;;;;4953680;29;20380;-84
2023/04/07 06:32:12;;;;;;;4.55;2.40;;;8.70;75.20;;;;;;4938794;29;20051;-85
2023/04/07 06:34:38;;;;;;;4.43;2.47;;;8.80;75.10;;;;;;4943084;29;20031;-84
2023/04/07 06:37:04;;;;;;;4.25;2.88;;;8.80;75.30;;;;;;4958893;29;20027;-84
2023/04/07 06:39:30;;;;;;;5.43;2.83;;;8.80;75.10;;;;;;4940185;29;20035;-84
2023/04/07 06:41:56;;;;;;;4.95;2.50;;;8.70;76.00;;;;;;4941785;29;20034;-85
2023/04/07 06:44:22;;;;;;;4.32;2.30;;;8.70;76.20;;;;;;4941671;29;20042;-84
2023/04/07 06:46:51;;;;;;;3.70;2.80;;;8.80;76.40;;;;;;4955923;29;20094;-84
2023/04/07 06:49:17;;;;;;;4.00;2.55;;;8.90;76.30;;;;;;4940717;29;20078;-85
2023/04/07 06:51:43;;;;;;;6.22;2.95;;;9.10;75.80;;;;;;4941810;29;20027;-85
2023/04/07 06:54:12;;;;;;;3.75;3.15;;;9.30;75.30;;;;;;4958756;29;20035;-85
2023/04/07 06:56:38;;;;;;;5.22;2.88;;;9.50;74.60;;;;;;4940889;29;20577;-86
2023/04/07 06:59:04;;;;;;;4.90;3.60;;;9.70;73.90;;;;;;4935280;29;20036;-85
2023/04/07 07:01:30;;;;;;;6.15;3.90;;;9.80;73.40;;;;;;4935686;29;20565;-85
2023/04/07 07:03:55;;;;;;;5.88;4.32;;;10.00;72.80;;;;;;4939747;29;20024;-85
2023/04/07 07:06:21;;;;;;;5.15;3.88;;;10.10;72.90;;;;;;4939240;29;20015;-85
2023/04/07 07:08:46;;;;;;;4.88;3.53;;;10.30;72.20;;;;;;4957898;29;20094;-86
2023/04/07 07:11:12;;;;;;;5.15;3.45;;;10.70;71.50;;;;;;4954350;29;20027;-85
2023/04/07 07:13:38;;;;;;;6.55;3.00;;;10.80;70.90;;;;;;4958231;29;20035;-84
2023/04/07 07:16:04;;;;;;;3.75;2.85;;;11.00;70.50;;;;;;4941514;29;20082;-84
2023/04/07 07:18:29;;;;;;;4.88;2.63;;;11.20;69.90;;;;;;4940927;29;20027;-84
2023/04/07 07:20:55;;;;;;;4.07;2.40;;;11.20;69.90;;;;;;4938127;29;20041;-84
2023/04/07 07:23:21;;;;;;;4.72;2.78;;;11.40;69.60;;;;;;4941578;29;20023;-84
2023/04/07 07:25:46;;;;;;;4.88;2.70;;;11.60;69.10;;;;;;4940928;29;20027;-85
2023/04/07 07:28:12;;;;;;;4.80;2.97;;;12.40;67.90;;;;;;4957485;29;20074;-84
2023/04/07 07:30:40;;;;;;;5.07;3.58;;;13.80;64.70;;;;;;4937829;28;20128;-84
2023/04/07 07:33:06;;;;;;;3.40;3.08;;;15.40;60.70;;;;;;4957921;29;20031;-83
2023/04/07 07:35:31;;;;;;;5.00;2.80;;;15.70;59.10;;;;;;4940444;29;20042;-84
2023/04/07 07:37:57;;;;;;;3.30;2.53;;;16.30;57.80;;;;;;4941026;29;20027;-84
2023/04/07 07:40:23;;;;;;;5.80;2.53;;;17.70;55.10;;;;;;4939913;29;20023;-84
2023/04/07 07:42:48;;;;;;;6.75;2.47;;;19.70;51.10;;;;;;4957105;29;20041;-84
2023/04/07 07:45:14;;;;;;;4.20;1.92;;;21.20;46.90;;;;;;4940856;29;20034;-85
2023/04/07 07:47:40;;;;;;;3.58;2.20;;;22.50;45.30;;;;;;4939942;29;20031;-85
2023/04/07 07:50:06;;;;;;;4.47;2.33;;;23.50;42.50;;;;;;4940617;28;20073;-84
2023/04/07 07:52:32;;;;;;;4.30;2.50;;;24.30;40.40;;;;;;4958108;29;20090;-85
2023/04/07 07:54:58;;;;;;;2.97;2.55;;;24.80;39.50;;;;;;4958013;29;20035;-85
2023/04/07 07:57:24;;;;;;;3.47;2.33;;;25.20;38.90;;;;;;4955974;29;20102;-85
2023/04/07 07:59:50;;;;;;;5.25;3.42;;;25.20;37.80;;;;;;4958325;29;20463;-84
2023/04/07 08:02:15;;;;;;;4.85;3.28;;;25.30;35.90;;;;;;4955316;29;20094;-84
2023/04/07 08:04:41;;;;;;;5.57;4.00;;;25.90;36.90;;;;;;4957914;29;20020;-83
2023/04/07 08:07:07;;;;;;;5.13;3.83;;;26.80;36.10;;;;;;4955906;29;20082;-83
2023/04/07 08:09:32;;;;;;;5.05;3.47;;;27.00;34.00;;;;;;4940787;29;20087;-83
2023/04/07 08:11:58;;;;;;;6.32;3.60;;;27.00;35.20;;;;;;4958123;29;20755;-83
2023/04/07 08:14:24;;;;;;;3.80;3.15;;;27.40;34.40;;;;;;4956526;29;20547;-83
2023/04/07 08:16:50;;;;;;;4.30;2.72;;;27.70;33.70;;;;;;4956578;29;20027;-84
2023/04/07 08:19:16;;;;;;;4.70;2.72;;;27.60;32.60;;;;;;4940313;29;20364;-84
2023/04/07 08:21:41;;;;;;;3.47;2.85;;;27.30;32.70;;;;;;4940118;29;20110;-84
2023/04/07 08:24:08;;;;;;;5.70;3.58;;;28.00;32.70;;;;;;4939793;29;20023;-84
2023/04/07 08:26:34;;;;;;;6.30;3.72;;;27.50;32.00;;;;;;4957811;29;20031;-84
2023/04/07 08:28:59;;;;;;;4.60;3.30;;;28.00;31.90;;;;;;4937893;29;20390;-84
2023/04/07 08:31:26;;;;;;;5.05;3.30;;;28.90;31.60;;;;;;4936858;28;20146;-84
2023/04/07 08:33:56;;;;;;;5.38;3.28;;;28.70;28.40;;;;;;4940979;29;20023;-84
2023/04/07 08:36:25;;;;;;;7.53;2.92;;;28.50;29.50;;;;;;4940504;29;20031;-84
2023/04/07 08:38:51;;;;;;;;;;;28.00;29.20;;;;;;4956553;29;20102;-84
2023/04/07 08:41:27;;;;;;;3.45;2.28;;;28.30;31.30;;;;;;4956766;29;19949;-84
2023/04/07 08:43:56;;;;;;;3.63;2.63;;;27.40;31.20;;;;;;4956994;29;20031;-84
2023/04/07 08:46:22;;;;;;;3.60;2.60;;;27.00;29.30;;;;;;4938206;29;20545;-84
2023/04/07 08:48:54;;;;;;;5.70;2.67;;;27.30;32.00;;;;;;4937290;29;20330;-84
2023/04/07 08:51:26;;;;;;;6.03;3.42;;;26.50;30.70;;;;;;4940441;29;20042;-82
2023/04/07 08:53:53;;;;;;;4.68;2.97;;;25.70;32.40;;;;;;4939324;29;20030;-82
2023/04/07 08:56:20;;;;;;;4.90;2.60;;;25.80;32.10;;;;;;4957271;29;20462;-83
2023/04/07 08:58:47;;;;;;;3.15;2.35;;;26.20;32.00;;;;;;4938061;29;20031;-83
2023/04/07 09:01:15;;;;;;;4.05;2.40;;;25.90;30.90;;;;;;4940526;29;20031;-83
2023/04/07 09:03:43;;;;;;;4.30;2.20;;;25.20;32.20;;;;;;4942607;29;20022;-83
2023/04/07 09:06:12;;;;;;;6.03;2.05;;;25.10;32.80;;;;;;4961215;29;20063;-83
2023/04/07 09:08:38;;;;;;;5.25;2.85;;;25.10;32.00;;;;;;4961480;29;20098;-83
2023/04/07 09:11:03;;;;;;;4.22;2.55;;;24.10;33.30;;;;;;4942196;29;20074;-83
2023/04/07 09:13:30;;;;;;;9.73;5.85;;;24.00;32.60;;;;;;4959163;29;20054;-83
2023/04/07 09:15:56;;;;;;;12.20;8.65;;;23.40;34.40;;;;;;4940307;29;20039;-82
2023/04/07 09:18:22;;;;;;;15.70;10.57;;;23.50;34.20;;;;;;4960331;29;20031;-82
2023/04/07 09:21:06;;;;;;;12.77;8.50;;;23.80;34.30;;;;;;4956675;29;20031;-82
2023/04/07 09:23:34;;;;;;;10.10;7.22;;;24.00;34.70;;;;;;4939215;29;20506;-82
2023/04/07 09:26:23;;;;;;;8.55;6.82;;;24.50;32.80;;;;;;4940338;29;20022;-82
2023/04/07 09:28:53;;;;;;;8.73;6.15;;;24.00;32.60;;;;;;4938093;29;20483;-82
2023/04/07 09:31:22;;;;;;;12.13;7.32;;;23.80;32.70;;;;;;4969926;28;20046;-82
2023/04/07 09:33:48;;;;;;;32.47;22.67;;;24.40;32.50;;;;;;4979759;28;20033;-82
2023/04/07 09:36:14;;;;;;;25.58;16.63;;;25.30;32.70;;;;;;4979615;28;20038;-83
2023/04/07 09:38:42;;;;;;;15.73;10.73;;;26.30;32.60;;;;;;4977475;28;20034;-83
2023/04/07 09:41:13;;;;;;;15.48;10.63;;;26.60;32.20;;;;;;4979608;28;20099;-83
2023/04/07 09:43:40;;;;;;;11.27;8.45;;;27.30;30.60;;;;;;4979193;28;20023;-84
2023/04/07 09:46:09;;;;;;;12.90;9.55;;;26.30;29.90;;;;;;4961194;28;20499;-83
2023/04/07 09:48:35;;;;;;;10.90;8.95;;;25.60;30.70;;;;;;4962214;28;20030;-82
2023/04/07 09:51:06;;;;;;;9.98;7.28;;;25.50;31.60;;;;;;4978197;28;20087;-83
2023/04/07 09:53:48;;;;;;;7.07;4.97;;;25.90;30.00;;;;;;4979364;28;20049;-82
2023/04/07 09:56:16;;;;;;;9.07;5.20;;;26.10;30.70;;;;;;4978218;28;20113;-83
2023/04/07 09:58:47;;;;;;;7.53;5.05;;;26.20;31.00;;;;;;4967759;28;20094;-82
2023/04/07 10:01:18;;;;;;;6.13;4.72;;;26.00;30.30;;;;;;4978823;28;20042;-82
2023/04/07 10:03:49;;;;;;;5.18;3.33;;;24.80;32.40;;;;;;4959396;28;20031;-82
2023/04/07 10:06:15;;;;;;;7.35;4.75;;;25.30;32.80;;;;;;4978859;28;20413;-83
2023/04/07 10:08:42;;;;;;;6.38;4.50;;;25.10;31.90;;;;;;4957823;28;20027;-82
2023/04/07 10:11:09;;;;;;;7.45;2.92;;;25.10;32.80;;;;;;4961264;28;20039;-82
2023/04/07 10:13:36;;;;;;;3.38;2.53;;;24.80;32.80;;;;;;4975413;28;20027;-80
2023/04/07 10:16:04;;;;;;;3.28;1.42;;;24.80;31.90;;;;;;4972044;28;20027;-80
2023/04/07 10:18:32;;;;;;;3.23;1.80;;;25.10;32.80;;;;;;4973966;28;20114;-79
2023/04/07 10:21:03;;;;;;;4.70;1.42;;;24.00;31.90;;;;;;4975731;28;20039;-79
2023/04/07 10:23:36;;;;;;;3.33;1.58;;;23.80;34.10;;;;;;4975937;28;20042;-79
2023/04/07 10:26:03;;;;;;;2.97;1.20;;;22.90;34.50;;;;;;4976270;28;20054;-81
2023/04/07 10:28:31;;;;;;;2.22;1.17;;;22.50;35.20;;;;;;4959305;28;20027;-78
2023/04/07 10:30:57;;;;;;;2.63;1.17;;;22.20;35.60;;;;;;4969204;28;20074;-78
2023/04/07 10:33:45;;;;;;;1.83;0.65;;;21.60;36.70;;;;;;4966561;28;20058;-79
2023/04/07 10:36:11;;;;;;;1.40;0.75;;;21.10;35.20;;;;;;4972613;28;20035;-78
2023/04/07 10:38:36;;;;;;;1.10;0.70;;;20.90;36.00;;;;;;4977005;28;20030;-79
2023/04/07 10:41:40;;;;;;;3.17;0.82;;;20.60;35.50;;;;;;4960959;28;20034;-81
2023/04/07 10:44:28;;;;;;;1.25;0.70;;;20.10;36.70;;;;;;4957662;28;20035;-75
2023/04/07 10:47:00;;;;;;;3.42;0.80;;;19.70;37.60;;;;;;4952307;28;20037;-77
2023/04/07 10:49:26;;;;;;;2.40;1.08;;;19.50;39.20;;;;;;4975718;28;20033;-79
2023/04/07 10:52:10;;;;;;;2.05;0.70;;;19.00;39.70;;;;;;4975361;28;20054;-78
2023/04/07 10:54:36;;;;;;;2.10;0.80;;;19.00;39.40;;;;;;4977119;28;20578;-78
2023/04/07 10:57:01;;;;;;;5.18;1.15;;;19.00;39.10;;;;;;4974098;28;20130;-80
2023/04/07 10:59:28;;;;;;;1.63;0.95;;;18.80;39.30;;;;;;4977481;28;20031;-79
2023/04/07 11:02:16;;;;;;;2.97;1.00;;;18.80;39.50;;;;;;4974691;28;20062;-80
2023/04/07 11:04:43;;;;;;;2.97;1.35;;;18.80;39.90;;;;;;4975545;28;20035;-81
2023/04/07 11:07:10;;;;;;;2.78;1.02;;;18.80;39.50;;;;;;4977946;28;20034;-88
2023/04/07 11:09:36;;;;;;;3.70;1.30;;;18.70;40.20;;;;;;4973518;28;20031;-78
2023/04/07 11:12:02;;;;;;;2.65;1.70;;;18.70;39.50;;;;;;4957792;28;20037;-79
2023/04/07 11:14:29;;;;;;;4.15;1.80;;;18.60;40.50;;;;;;4973610;28;20069;-78
2023/04/07 11:16:55;;;;;;;6.18;1.65;;;18.60;39.00;;;;;;4971932;28;20542;-78
2023/04/07 11:19:21;;;;;;;3.92;1.92;;;18.70;39.90;;;;;;4974627;28;20059;-79
2023/04/07 11:21:47;;;;;;;6.57;2.20;;;18.80;40.60;;;;;;4971430;28;20026;-79
2023/04/07 11:24:32;;;;;;;5.05;1.40;;;18.80;41.30;;;;;;4976100;28;20038;-78
2023/04/07 11:26:58;;;;;;;4.68;1.10;;;18.70;39.80;;;;;;4976370;28;20061;-79
2023/04/07 11:29:31;;;;;;;3.13;1.50;;;18.70;41.00;;;;;;4971780;28;20051;-78
2023/04/07 11:32:01;;;;;;;2.75;1.17;;;18.60;40.60;;;;;;4971488;28;20123;-78
2023/04/07 11:34:33;;;;;;;;;;;18.60;39.40;;;;;;4976856;28;20023;-78
2023/04/07 11:37:23;;;;;;;3.95;1.67;;;18.50;39.90;;;;;;4972573;28;20342;-78
2023/04/07 11:39:53;;;;;;;2.50;1.42;;;18.40;39.00;;;;;;4972821;28;20436;-79
2023/04/07 11:42:35;;;;;;;;;;;18.30;40.70;;;;;;4977292;28;20026;-79
2023/04/07 11:45:01;;;;;;;3.90;1.38;;;18.30;40.70;;;;;;4953245;28;20001;-78
2023/04/07 11:47:37;;;;;;;2.42;1.58;;;18.40;39.60;;;;;;4972878;28;20121;-78
2023/04/07 11:50:03;;;;;;;2.78;1.25;;;18.20;40.40;;;;;;4975723;28;20015;-78
2023/04/07 11:52:48;;;;;;;2.70;1.48;;;18.20;40.30;;;;;;4976604;28;20042;-78
2023/04/07 11:55:18;;;;;;;5.03;1.60;;;18.40;40.40;;;;;;4967465;28;20047;-78
2023/04/07 11:57:44;;;;;;;;;;;18.50;40.70;;;;;;4964308;28;20023;-78
2023/04/07 12:00:12;;;;;;;4.50;1.90;;;18.30;40.40;;;;;;4970320;28;19917;-78
2023/04/07 12:02:38;;;;;;;3.17;1.42;;;18.30;40.40;;;;;;4970882;28;20059;-78
2023/04/07 12:05:04;;;;;;;3.08;1.98;;;18.40;41.10;;;;;;4970544;28;20035;-78
2023/04/07 12:07:30;;;;;;;3.55;1.50;;;18.60;40.80;;;;;;4969947;28;20015;-78
2023/04/07 12:09:56;;;;;;;4.60;2.38;;;18.50;40.70;;;;;;4970225;28;20018;-77
2023/04/07 12:12:31;;;;;;;3.38;1.83;;;18.50;39.90;;;;;;4964283;28;20023;-78
2023/04/07 12:14:57;;;;;;;7.70;2.42;;;18.30;40.50;;;;;;4968662;28;20550;-78
2023/04/07 12:17:25;;;;;;;5.63;1.80;;;18.30;41.90;;;;;;4962665;28;20455;-78
2023/04/07 12:19:51;;;;;;;3.20;1.55;;;17.70;40.00;;;;;;4963101;28;20498;-78
2023/04/07 12:22:17;;;;;;;4.10;2.35;;;17.40;41.00;;;;;;4962739;28;20049;-78
2023/04/07 12:24:43;;;;;;;2.42;1.90;;;17.10;40.50;;;;;;4962746;28;20019;-77
2023/04/07 12:27:09;;;;;;;2.88;1.40;;;17.30;41.50;;;;;;4963857;28;20027;-78
2023/04/07 12:29:36;;;;;;;3.95;1.60;;;17.40;40.70;;;;;;4963530;28;20054;-78
2023/04/07 12:32:02;;;;;;;2.85;1.42;;;17.40;40.80;;;;;;4965917;28;20061;-77
2023/04/07 12:34:28;;;;;;;9.80;1.58;;;17.60;41.30;;;;;;4965167;28;20118;-78
2023/04/07 12:36:54;;;;;;;2.65;1.45;;;17.60;40.50;;;;;;4965412;28;20063;-78
2023/04/07 12:39:20;;;;;;;2.28;1.10;;;17.70;40.30;;;;;;4969247;28;20026;-77
2023/04/07 12:41:47;;;;;;;2.47;1.13;;;17.90;41.00;;;;;;4977178;28;20069;-78
2023/04/07 12:44:14;;;;;;;4.40;1.92;;;17.60;40.10;;;;;;4980218;28;20066;-77
2023/04/07 12:46:40;;;;;;;4.35;1.38;;;17.60;40.90;;;;;;4965035;28;20028;-77
2023/04/07 12:49:05;;;;;;;2.25;1.33;;;17.80;40.80;;;;;;4960980;29;20069;-77
2023/04/07 12:51:32;;;;;;;5.75;1.50;;;17.40;40.30;;;;;;4975791;28;20054;-78
2023/04/07 12:53:59;;;;;;;2.30;1.20;;;17.70;41.80;;;;;;4961358;29;20024;-78
2023/04/07 12:56:26;;;;;;;3.17;1.02;;;17.80;39.60;;;;;;4961110;29;20051;-77
2023/04/07 12:58:52;;;;;;;2.05;1.30;;;17.70;40.50;;;;;;4959979;28;20074;-77
2023/04/07 13:01:18;;;;;;;4.18;1.30;;;17.70;40.70;;;;;;4979694;28;20034;-77
2023/04/07 13:03:43;;;;;;;2.13;1.10;;;17.40;39.20;;;;;;4980142;28;20031;-78
2023/04/07 13:06:09;;;;;;;2.13;1.27;;;17.40;39.80;;;;;;4977404;28;20058;-79
2023/04/07 13:08:35;;;;;;;3.35;1.02;;;17.60;40.30;;;;;;4976318;28;20064;-77
2023/04/07 13:11:01;;;;;;;3.78;1.50;;;17.70;40.10;;;;;;4974074;28;20030;-75
2023/04/07 13:13:27;;;;;;;3.00;1.45;;;17.40;39.00;;;;;;4969137;28;20082;-76
2023/04/07 13:15:53;;;;;;;2.28;1.10;;;17.70;41.60;;;;;;4962471;28;20058;-76
2023/04/07 13:18:19;;;;;;;1.95;0.88;;;17.80;41.40;;;;;;4977508;28;20037;-76
2023/04/07 13:20:45;;;;;;;6.25;2.20;;;17.90;40.40;;;;;;4975572;28;20027;-77
2023/04/07 13:23:11;;;;;;;4.07;1.50;;;17.60;39.70;;;;;;4974597;28;20054;-77
2023/04/07 13:25:37;;;;;;;7.80;2.03;;;17.50;39.80;;;;;;4972085;28;20475;-77
2023/04/07 13:28:02;;;;;;;2.60;1.15;;;17.70;40.80;;;;;;4975546;28;20054;-76
2023/04/07 13:30:28;;;;;;;2.38;1.10;;;17.80;40.30;;;;;;4978946;28;20055;-76
2023/04/07 13:32:53;;;;;;;2.65;1.35;;;17.70;39.50;;;;;;4978486;28;20102;-77
2023/04/07 13:35:19;;;;;;;3.13;1.55;;;17.70;39.80;;;;;;4968071;28;20047;-77
2023/04/07 13:37:45;;;;;;;2.15;0.85;;;17.80;39.60;;;;;;4976808;28;20093;-76
2023/04/07 13:40:14;;;;;;;1.55;1.02;;;17.90;39.70;;;;;;4977258;28;20478;-77
2023/04/07 13:42:39;;;;;;;2.38;0.93;;;17.90;40.30;;;;;;4973968;28;20030;-77
2023/04/07 13:45:06;;;;;;;2.47;1.20;;;18.00;39.80;;;;;;4973656;28;20144;-77
2023/04/07 13:47:33;;;;;;;2.40;0.98;;;18.00;38.30;;;;;;4972827;28;20818;-77
2023/04/07 13:50:02;;;;;;;2.33;1.27;;;18.00;38.40;;;;;;4975860;28;20458;-77
2023/04/07 13:52:29;;;;;;;2.97;1.38;;;18.00;38.50;;;;;;4978643;28;20026;-77
2023/04/07 13:54:56;;;;;;;2.35;1.17;;;18.00;40.40;;;;;;4973804;28;20121;-77
2023/04/07 13:57:22;;;;;;;1.45;1.02;;;17.60;37.40;;;;;;4978905;28;20053;-76
2023/04/07 13:59:50;;;;;;;3.50;1.20;;;17.50;40.00;;;;;;4978875;28;20105;-77
2023/04/07 14:02:17;;;;;;;2.75;0.98;;;17.60;40.00;;;;;;4976110;28;20069;-77
2023/04/07 14:04:43;;;;;;;2.00;1.20;;;17.30;40.00;;;;;;4978049;28;20038;-76
2023/04/07 14:07:08;;;;;;;2.92;1.13;;;17.30;40.10;;;;;;4961072;28;20030;-77
2023/04/07 14:09:34;;;;;;;1.58;1.00;;;17.50;41.10;;;;;;4978453;28;20031;-76
2023/04/07 14:12:00;;;;;;;3.97;1.20;;;17.50;42.00;;;;;;4978400;28;20026;-78
2023/04/07 14:14:26;;;;;;;5.55;1.15;;;17.30;41.10;;;;;;4976275;28;20521;-77
2023/04/07 14:16:52;;;;;;;2.72;1.00;;;17.50;41.60;;;;;;4975411;28;20529;-77
2023/04/07 14:19:22;;;;;;;2.97;1.00;;;17.30;40.30;;;;;;4978476;28;20561;-76
2023/04/07 14:21:48;;;;;;;2.97;0.70;;;17.60;42.90;;;;;;4976119;28;20029;-76
2023/04/07 14:24:14;;;;;;;2.03;1.17;;;17.50;41.80;;;;;;4978506;28;20050;-76
2023/04/07 14:26:41;;;;;;;1.95;1.17;;;17.60;41.60;;;;;;4978454;28;20101;-78
2023/04/07 14:29:07;;;;;;;3.15;1.00;;;17.80;40.10;;;;;;4960642;28;20573;-78
2023/04/07 14:31:32;;;;;;;2.72;1.48;;;17.80;40.70;;;;;;4978146;28;20042;-76
2023/04/07 14:33:58;;;;;;;2.92;1.27;;;17.50;39.30;;;;;;4978036;28;20123;-76
2023/04/07 14:36:24;;;;;;;1.85;1.00;;;17.30;40.50;;;;;;4977200;28;20045;-76
2023/04/07 14:38:50;;;;;;;3.03;0.85;;;17.30;42.10;;;;;;4978276;28;20444;-76
2023/04/07 14:41:17;;;;;;;2.95;1.17;;;17.60;41.60;;;;;;4978455;28;20031;-76
2023/04/07 14:43:42;;;;;;;2.28;1.05;;;17.60;41.40;;;;;;4976268;28;20019;-76
2023/04/07 14:46:08;;;;;;;2.60;1.10;;;17.40;41.00;;;;;;4977730;28;20034;-76
2023/04/07 14:48:34;;;;;;;2.80;1.10;;;17.40;41.60;;;;;;4976935;28;20019;-76
2023/04/07 14:51:00;;;;;;;1.70;0.95;;;17.60;43.60;;;;;;4960636;28;20086;-76
2023/04/07 14:53:25;;;;;;;4.00;1.50;;;17.70;41.50;;;;;;4978060;28;20039;-76
2023/04/07 14:55:51;;;;;;;4.57;1.20;;;17.80;40.80;;;;;;4959601;28;20015;-76
2023/04/07 14:58:17;;;;;;;4.30;1.15;;;17.90;40.20;;;;;;4973574;28;20039;-76
2023/04/07 15:00:42;;;;;;;2.30;1.52;;;17.50;41.20;;;;;;4977221;28;20022;-76
2023/04/07 15:03:08;;;;;;;1.90;1.10;;;17.50;41.20;;;;;;4960730;28;20030;-76
2023/04/07 15:05:34;;;;;;;4.85;1.33;;;17.30;40.40;;;;;;4975971;28;20027;-76
2023/04/07 15:08:00;;;;;;;2.10;1.13;;;17.30;40.30;;;;;;4971983;28;20034;-76
2023/04/07 15:10:26;;;;;;;2.90;1.13;;;17.30;40.30;;;;;;4972879;28;20106;-77
2023/04/07 15:12:52;;;;;;;3.63;1.30;;;17.30;41.20;;;;;;4978071;28;20049;-76
2023/04/07 15:15:18;;;;;;;2.17;1.10;;;17.30;40.90;;;;;;4976256;28;20118;-75
2023/04/07 15:17:43;;;;;;;2.50;1.30;;;17.00;40.80;;;;;;4968830;28;20426;-75
2023/04/07 15:20:09;;;;;;;1.20;1.00;;;17.10;40.40;;;;;;4973799;28;20027;-76
2023/04/07 15:22:35;;;;;;;4.20;1.50;;;17.20;41.00;;;;;;4975701;28;20031;-75
2023/04/07 15:25:02;;;;;;;3.70;1.30;;;17.30;40.60;;;;;;4977329;28;20023;-74
2023/04/07 15:27:28;;;;;;;3.67;1.13;;;17.10;40.70;;;;;;4949801;28;20031;-75
2023/04/07 15:29:53;;;;;;;3.83;1.30;;;16.80;40.10;;;;;;4976768;28;20372;-75
2023/04/07 15:32:19;;;;;;;2.55;1.25;;;16.90;40.70;;;;;;4976159;28;20049;-76
2023/04/07 15:34:46;;;;;;;2.20;1.20;;;16.80;39.90;;;;;;4973492;28;20089;-75
2023/04/07 15:37:13;;;;;;;3.35;1.45;;;17.00;40.10;;;;;;4975862;28;20054;-75
2023/04/07 15:39:38;;;;;;;2.22;1.00;;;17.00;40.30;;;;;;4975107;28;20023;-77
2023/04/07 15:42:08;;;;;;;3.67;1.08;;;17.20;39.50;;;;;;4973693;28;20122;-77
2023/04/07 15:44:38;;;;;;;2.25;1.27;;;17.10;39.10;;;;;;4976494;28;20094;-77
2023/04/07 15:47:07;;;;;;;2.00;1.10;;;17.20;40.70;;;;;;4975544;28;21872;-77
2023/04/07 15:49:35;;;;;;;2.35;1.33;;;17.30;40.20;;;;;;4976533;28;20102;-77
2023/04/07 15:52:03;;;;;;;2.95;1.17;;;17.40;40.80;;;;;;4976697;28;20538;-76
2023/04/07 15:54:29;;;;;;;2.95;1.00;;;17.40;38.70;;;;;;4975916;28;20018;-78
2023/04/07 15:56:55;;;;;;;3.58;1.30;;;17.40;40.30;;;;;;4974568;28;20038;-77
2023/04/07 15:59:20;;;;;;;2.95;1.73;;;17.30;38.90;;;;;;4976823;28;20019;-79
2023/04/07 16:01:46;;;;;;;2.97;1.20;;;17.40;39.80;;;;;;4969685;28;20077;-77
2023/04/07 16:04:12;;;;;;;3.15;1.20;;;17.30;39.10;;;;;;4973204;28;20027;-77
2023/04/07 16:06:38;;;;;;;2.80;1.23;;;17.30;39.10;;;;;;4970923;28;20565;-77
2023/04/07 16:09:03;;;;;;;2.42;1.20;;;17.20;39.60;;;;;;4975494;28;20151;-76
2023/04/07 16:11:29;;;;;;;1.75;0.82;;;17.20;40.20;;;;;;4971776;28;20030;-76
2023/04/07 16:13:54;;;;;;;1.50;1.00;;;17.20;40.10;;;;;;4975595;28;20105;-76
2023/04/07 16:16:20;;;;;;;3.00;1.13;;;17.20;39.40;;;;;;4975842;28;20472;-75
2023/04/07 16:18:46;;;;;;;3.30;1.45;;;17.30;40.20;;;;;;4956101;28;20042;-76
2023/04/07 16:21:12;;;;;;;2.10;1.10;;;17.20;38.30;;;;;;4971394;28;20023;-75
2023/04/07 16:23:38;;;;;;;2.22;1.17;;;17.20;39.00;;;;;;4975444;28;20023;-75
2023/04/07 16:26:04;;;;;;;2.78;1.10;;;17.30;39.90;;;;;;4975305;28;20034;-76
2023/04/07 16:28:29;;;;;;;3.13;1.30;;;17.30;39.50;;;;;;4973300;28;20034;-76
2023/04/07 16:30:55;;;;;;;1.13;0.90;;;17.30;39.70;;;;;;4974813;28;20074;-78
2023/04/07 16:33:22;;;;;;;3.30;1.15;;;17.40;39.70;;;;;;4957368;28;20018;-76
2023/04/07 16:35:48;;;;;;;2.78;1.27;;;17.40;39.80;;;;;;4974337;28;20014;-75
2023/04/07 16:38:14;;;;;;;1.55;1.10;;;17.50;39.50;;;;;;4955913;28;20085;-75
2023/04/07 16:40:43;;;;;;;4.50;1.40;;;17.50;39.40;;;;;;4975547;28;20502;-75
2023/04/07 16:43:08;;;;;;;3.92;1.20;;;17.50;39.40;;;;;;4971150;28;20031;-75
2023/04/07 16:45:34;;;;;;;2.28;1.20;;;17.40;38.40;;;;;;4975814;28;20018;-75
2023/04/07 16:48:01;;;;;;;3.55;1.20;;;17.50;39.70;;;;;;4972298;28;20085;-76
2023/04/07 16:50:26;;;;;;;3.25;1.50;;;17.50;39.30;;;;;;4974465;28;20031;-75
2023/04/07 16:52:53;;;;;;;2.55;1.42;;;17.40;39.00;;;;;;4972715;28;20110;-78
2023/04/07 16:55:19;;;;;;;4.63;1.17;;;17.20;39.30;;;;;;4969823;28;20037;-75
2023/04/07 16:57:45;;;;;;;3.05;1.20;;;17.20;40.10;;;;;;4965861;28;20091;-79
2023/04/07 17:00:11;;;;;;;3.10;1.50;;;17.00;39.60;;;;;;4955199;29;20669;-75
2023/04/07 17:02:37;;;;;;;3.17;1.05;;;16.90;40.00;;;;;;4966462;28;20465;-78
2023/04/07 17:05:02;;;;;;;3.85;1.80;;;17.00;40.80;;;;;;4973340;28;20133;-78
2023/04/07 17:07:28;;;;;;;4.22;1.45;;;17.20;40.50;;;;;;4953973;28;20024;-77
2023/04/07 17:09:54;;;;;;;2.65;1.52;;;17.10;40.60;;;;;;4976141;28;20105;-86
2023/04/07 17:12:19;;;;;;;2.63;1.38;;;17.10;41.00;;;;;;4944603;28;20141;-78
2023/04/07 17:14:45;;;;;;;3.33;1.50;;;16.90;39.40;;;;;;4956527;28;20035;-78
2023/04/07 17:17:11;;;;;;;3.50;1.40;;;17.00;40.50;;;;;;4960614;28;20050;-77
2023/04/07 17:19:36;;;;;;;3.20;1.52;;;16.70;39.60;;;;;;4975991;28;20019;-80
2023/04/07 17:22:02;;;;;;;2.67;1.45;;;16.70;40.60;;;;;;4961980;28;20033;-78
2023/04/07 17:24:28;;;;;;;4.60;1.50;;;16.80;40.10;;;;;;4971494;28;20049;-76
2023/04/07 17:26:53;;;;;;;3.35;1.40;;;16.70;40.60;;;;;;4965329;28;20545;-78
2023/04/07 17:29:20;;;;;;;3.55;1.80;;;16.80;40.40;;;;;;4979743;28;20093;-78
2023/04/07 17:31:48;;;;;;;4.18;1.60;;;16.80;41.00;;;;;;4979274;28;20054;-77